Time;durP1;ratioP1;P1;durP2;ratioP2;P2;SDS_P1;SDS_P2;PMS_P1;PMS_P2;Temp;Humidity;BMP_temperature;BMP_pressure;BME280_temperature;BME280_humidity;BME280_pressure;Samples;Min_cycle;Max_cycle;Signal;HPM_P1;HPM_P2
2023/03/22 00:00:35;;;;;;;11.68;6.45;;;;;;;;;;4862765;29;20543;-76
2023/03/22 00:03:01;;;;;;;7.93;6.45;;;;;;;;;;4883327;29;20192;-75
2023/03/22 00:05:29;;;;;;;11.25;7.20;;;;;;;;;;4861184;29;20252;-76
2023/03/22 00:07:56;;;;;;;9.70;6.50;;;;;;;;;;4861679;29;20223;-76
2023/03/22 00:10:24;;;;;;;10.13;7.40;;;;;;;;;;4866997;29;20192;-75
2023/03/22 00:12:50;;;;;;;9.20;7.10;;;;;;;;;;4898917;29;20183;-75
2023/03/22 00:15:16;;;;;;;10.18;7.10;;;;;;;;;;4884033;29;20786;-75
2023/03/22 00:17:43;;;;;;;10.30;7.30;;;;;;;;;;4883352;29;20574;-75
2023/03/22 00:20:10;;;;;;;12.65;8.15;;;;;;;;;;4899195;29;20179;-75
2023/03/22 00:22:36;;;;;;;8.25;7.15;;;;;;;;;;4882453;29;20583;-75
2023/03/22 00:25:03;;;;;;;10.93;8.05;;;;;;;;;;4877635;29;20202;-75
2023/03/22 00:27:29;;;;;;;10.23;7.05;;;;;;;;;;4864864;29;20184;-75
2023/03/22 00:29:55;;;;;;;11.52;8.25;;;;;;;;;;4866617;29;20274;-75
2023/03/22 00:32:21;;;;;;;10.13;7.63;;;;;;;;;;4865320;29;20553;-75
2023/03/22 00:34:47;;;;;;;8.40;7.20;;;;;;;;;;4864703;29;21110;-75
2023/03/22 00:37:15;;;;;;;9.23;7.68;;;;;;;;;;4884089;29;20596;-75
2023/03/22 00:39:41;;;;;;;9.10;6.93;;;;;;;;;;4884262;29;20203;-76
2023/03/22 00:42:07;;;;;;;8.73;7.82;;;;;;;;;;4869379;29;20187;-75
2023/03/22 00:44:33;;;;;;;8.23;6.50;;;;;;;;;;4903227;29;20254;-76
2023/03/22 00:46:59;;;;;;;9.15;7.38;;;;;;;;;;4885314;29;20191;-75
2023/03/22 00:49:26;;;;;;;11.35;8.15;;;;;;;;;;4902867;29;20227;-75
2023/03/22 00:51:52;;;;;;;8.80;7.38;;;;;;;;;;4902816;29;20179;-75
2023/03/22 00:54:18;;;;;;;8.30;7.30;;;;;;;;;;4901931;29;20195;-75
2023/03/22 00:56:44;;;;;;;10.10;8.20;;;;;;;;;;4902727;29;20218;-75
2023/03/22 00:59:11;;;;;;;11.90;8.20;;;;;;;;;;4902361;29;20544;-75
2023/03/22 01:01:37;;;;;;;12.60;7.90;;;;;;;;;;4901362;29;20187;-75
2023/03/22 01:04:04;;;;;;;11.82;7.18;;;;;;;;;;4903310;29;20179;-75
2023/03/22 01:06:31;;;;;;;11.13;8.10;;;;;;;;;;4870979;29;20250;-76
2023/03/22 01:08:57;;;;;;;9.82;6.85;;;;;;;;;;4881054;29;20207;-75
2023/03/22 01:11:24;;;;;;;11.13;8.45;;;;;;;;;;4884225;29;20180;-75
2023/03/22 01:13:50;;;;;;;10.10;9.02;;;;;;;;;;4851447;29;20599;-75
2023/03/22 01:16:17;;;;;;;10.77;7.88;;;;;;;;;;4883706;29;20242;-75
2023/03/22 01:18:44;;;;;;;14.07;8.02;;;;;;;;;;4851482;29;20222;-75
2023/03/22 01:21:10;;;;;;;9.90;8.30;;;;;;;;;;4876520;29;20714;-75
2023/03/22 01:23:37;;;;;;;10.50;8.70;;;;;;;;;;4866825;29;20220;-74
2023/03/22 01:26:03;;;;;;;11.57;8.48;;;;;;;;;;4875181;29;20265;-75
2023/03/22 01:28:30;;;;;;;11.05;9.32;;;;;;;;;;4901603;29;20186;-75
2023/03/22 01:30:56;;;;;;;11.13;8.48;;;;;;;;;;4901500;29;20183;-75
2023/03/22 01:33:22;;;;;;;14.82;8.98;;;;;;;;;;4869733;29;20186;-75
2023/03/22 01:35:48;;;;;;;10.75;7.93;;;;;;;;;;4901685;29;20250;-75
2023/03/22 01:38:14;;;;;;;14.98;7.95;;;;;;;;;;4867910;29;20182;-75
2023/03/22 01:40:40;;;;;;;12.60;9.07;;;;;;;;;;4883322;29;20231;-75
2023/03/22 01:43:14;;;;;;;13.02;9.35;;;;;;;;;;4867106;29;20192;-74
2023/03/22 01:45:42;;;;;;;16.95;8.80;;;;;;;;;;4884237;29;20249;-75
2023/03/22 01:48:24;;;;;;;10.57;8.38;;;;;;;;;;4885584;29;20290;-75
2023/03/22 01:50:58;;;;;;;11.48;8.15;;;;;;;;;;4866297;29;20524;-75
2023/03/22 01:53:25;;;;;;;11.40;9.20;;;;;;;;;;4866567;29;20182;-74
2023/03/22 01:55:52;;;;;;;12.80;9.32;;;;;;;;;;4895320;29;20257;-74
2023/03/22 01:58:19;;;;;;;11.00;8.98;;;;;;;;;;4900433;29;20202;-74
2023/03/22 02:00:46;;;;;;;16.95;9.80;;;;;;;;;;4901361;29;20197;-74
2023/03/22 02:03:15;;;;;;;10.88;9.15;;;;;;;;;;4900907;29;20210;-74
2023/03/22 02:05:41;;;;;;;10.63;9.50;;;;;;;;;;4900204;29;20194;-74
2023/03/22 02:08:07;;;;;;;11.25;9.23;;;;;;;;;;4866164;29;20192;-74
2023/03/22 02:10:33;;;;;;;13.23;8.95;;;;;;;;;;4882878;29;20258;-78
2023/03/22 02:13:02;;;;;;;11.88;8.88;;;;;;;;;;4881581;29;20180;-74
2023/03/22 02:15:36;;;;;;;11.85;9.20;;;;;;;;;;4890709;29;20211;-74
2023/03/22 02:18:05;;;;;;;11.90;9.05;;;;;;;;;;4885422;29;20187;-75
2023/03/22 02:20:37;;;;;;;20.45;10.02;;;;;;;;;;4885072;29;20189;-75
2023/03/22 02:23:18;;;;;;;16.50;9.82;;;;;;;;;;4900551;29;20178;-75
2023/03/22 02:26:03;;;;;;;13.90;9.18;;;;;;;;;;4900318;29;20199;-75
2023/03/22 02:28:38;;;;;;;11.77;8.30;;;;;;;;;;4899969;29;20190;-75
2023/03/22 02:31:23;;;;;;;13.98;9.15;;;;;;;;;;4885082;29;20175;-75
2023/03/22 02:33:52;;;;;;;13.02;10.00;;;;;;;;;;4883110;29;20258;-76
2023/03/22 02:36:21;;;;;;;10.18;8.93;;;;;;;;;;4886294;29;20737;-75
2023/03/22 02:38:57;;;;;;;16.02;9.30;;;;;;;;;;4880230;29;20193;-75
2023/03/22 02:41:42;;;;;;;15.85;9.18;;;;;;;;;;4877905;29;20549;-75
2023/03/22 02:44:12;;;;;;;11.82;9.25;;;;;;;;;;4898433;29;20187;-75
2023/03/22 02:46:43;;;;;;;12.10;9.48;;;;;;;;;;4865818;29;20187;-76
2023/03/22 02:49:29;;;;;;;10.80;8.65;;;;;;;;;;4873121;29;20547;-75
2023/03/22 02:52:00;;;;;;;13.65;9.02;;;;;;;;;;4883734;29;20197;-75
2023/03/22 02:54:34;;;;;;;11.40;8.52;;;;;;;;;;4884397;29;20186;-75
2023/03/22 02:57:07;;;;;;;11.80;8.85;;;;;;;;;;4883515;29;20583;-76
2023/03/22 02:59:36;;;;;;;11.88;9.15;;;;;;;;;;4884496;29;20308;-75
2023/03/22 03:02:02;;;;;;;11.57;9.25;;;;;;;;;;4900598;29;20183;-75
2023/03/22 03:04:30;;;;;;;12.43;8.88;;;;;;;;;;4899878;29;20190;-75
2023/03/22 03:06:59;;;;;;;14.02;9.23;;;;;;;;;;4899637;29;20182;-75
2023/03/22 03:09:25;;;;;;;13.50;9.75;;;;;;;;;;4899224;29;20285;-76
2023/03/22 03:11:52;;;;;;;12.00;8.55;;;;;;;;;;4882452;29;20187;-75
2023/03/22 03:14:20;;;;;;;13.90;9.35;;;;;;;;;;4883719;29;20367;-75
2023/03/22 03:16:47;;;;;;;9.70;7.57;;;;;;;;;;4880229;29;20270;-75
2023/03/22 03:19:24;;;;;;;10.82;8.00;;;;;;;;;;4882198;29;20649;-75
2023/03/22 03:21:53;;;;;;;9.48;7.70;;;;;;;;;;4888632;29;20254;-75
2023/03/22 03:24:22;;;;;;;10.88;7.72;;;;;;;;;;4884551;29;20274;-75
2023/03/22 03:26:51;;;;;;;13.15;8.30;;;;;;;;;;4883431;29;20273;-75
2023/03/22 03:29:25;;;;;;;11.50;7.47;;;;;;;;;;4884836;29;20183;-75
2023/03/22 03:32:09;;;;;;;9.95;7.80;;;;;;;;;;4865192;29;20187;-75
2023/03/22 03:34:41;;;;;;;13.43;8.00;;;;;;;;;;4882564;29;20218;-75
2023/03/22 03:37:10;;;;;;;12.25;8.82;;;;;;;;;;4881086;29;20299;-75
2023/03/22 03:39:39;;;;;;;9.55;6.90;;;;;;;;;;4882322;29;20207;-75
2023/03/22 03:42:06;;;;;;;9.10;7.03;;;;;;;;;;4889100;29;20655;-75
2023/03/22 03:44:35;;;;;;;9.85;7.70;;;;;;;;;;4884180;29;20194;-75
2023/03/22 03:47:01;;;;;;;8.65;6.40;;;;;;;;;;4883481;29;20193;-74
2023/03/22 03:49:27;;;;;;;9.88;7.07;;;;;;;;;;4884073;29;20178;-75
2023/03/22 03:51:55;;;;;;;11.23;7.43;;;;;;;;;;4888757;29;20280;-75
2023/03/22 03:54:22;;;;;;;9.73;6.82;;;;;;;;;;4865667;29;20235;-75
2023/03/22 03:56:48;;;;;;;11.98;6.13;;;;;;;;;;4883889;29;20222;-75
2023/03/22 03:59:16;;;;;;;9.98;6.68;;;;;;;;;;4899679;29;20552;-75
2023/03/22 04:01:50;;;;;;;11.23;5.75;;;;;;;;;;4882931;29;20187;-75
2023/03/22 04:04:25;;;;;;;9.63;7.30;;;;;;;;;;4873334;29;20190;-74
2023/03/22 04:06:52;;;;;;;9.57;6.50;;;;;;;;;;4879364;29;20210;-75
2023/03/22 04:09:18;;;;;;;10.20;8.48;;;;;;;;;;4884195;29;20181;-75
2023/03/22 04:11:44;;;;;;;9.80;6.57;;;;;;;;;;4883024;29;20338;-75
2023/03/22 04:14:10;;;;;;;8.57;6.57;;;;;;;;;;4867141;29;20186;-75
2023/03/22 04:16:36;;;;;;;14.27;7.13;;;;;;;;;;4899371;29;20214;-75
2023/03/22 04:19:02;;;;;;;8.82;7.20;;;;;;;;;;4899017;29;20186;-75
2023/03/22 04:21:28;;;;;;;10.45;6.85;;;;;;;;;;4868754;29;20604;-75
2023/03/22 04:23:55;;;;;;;14.02;7.30;;;;;;;;;;4883190;29;20632;-75
2023/03/22 04:26:21;;;;;;;10.18;7.00;;;;;;;;;;4883557;29;20197;-75
2023/03/22 04:28:47;;;;;;;7.93;6.88;;;;;;;;;;4878471;29;20645;-75
2023/03/22 04:31:13;;;;;;;13.77;7.75;;;;;;;;;;4864720;29;20540;-75
2023/03/22 04:33:39;;;;;;;8.60;7.03;;;;;;;;;;4865119;29;20606;-75
2023/03/22 04:36:09;;;;;;;10.93;6.95;;;;;;;;;;4865002;29;20712;-75
2023/03/22 04:38:36;;;;;;;11.85;7.60;;;;;;;;;;4898555;29;20220;-75
2023/03/22 04:41:02;;;;;;;8.80;7.30;;;;;;;;;;4882615;29;20189;-75
2023/03/22 04:43:28;;;;;;;8.75;7.40;;;;;;;;;;4883650;29;20195;-75
2023/03/22 04:45:56;;;;;;;12.57;7.82;;;;;;;;;;4883324;29;20215;-75
2023/03/22 04:48:26;;;;;;;14.23;7.75;;;;;;;;;;4882911;29;20325;-74
2023/03/22 04:50:53;;;;;;;10.40;7.43;;;;;;;;;;4874611;29;20226;-75
2023/03/22 04:53:19;;;;;;;12.65;7.20;;;;;;;;;;4882201;29;20192;-75
2023/03/22 04:55:45;;;;;;;16.33;7.53;;;;;;;;;;4863439;29;20217;-75
2023/03/22 04:58:11;;;;;;;9.63;6.70;;;;;;;;;;4911400;29;20238;-74
2023/03/22 05:00:37;;;;;;;15.80;7.57;;;;;;;;;;4905799;29;20186;-75
2023/03/22 05:03:03;;;;;;;13.82;7.45;;;;;;;;;;4897754;29;21036;-75
2023/03/22 05:05:29;;;;;;;10.60;7.85;;;;;;;;;;4884663;29;20188;-75
2023/03/22 05:07:55;;;;;;;12.65;8.48;;;;;;;;;;4867724;29;20188;-75
2023/03/22 05:10:21;;;;;;;13.32;8.57;;;;;;;;;;4852892;29;20215;-75
2023/03/22 05:12:47;;;;;;;16.50;8.32;;;;;;;;;;4882330;29;20187;-75
2023/03/22 05:15:13;;;;;;;9.27;7.97;;;;;;;;;;4886958;29;20210;-75
2023/03/22 05:17:40;;;;;;;16.17;8.52;;;;;;;;;;4886735;29;20183;-75
2023/03/22 05:20:09;;;;;;;12.27;9.05;;;;;;;;;;4886415;29;20192;-75
2023/03/22 05:22:39;;;;;;;9.48;7.88;;;;;;;;;;4874087;29;20184;-75
2023/03/22 05:25:05;;;;;;;15.82;8.95;;;;;;;;;;4884205;29;20329;-75
2023/03/22 05:27:33;;;;;;;14.15;9.30;;;;;;;;;;4869064;29;20567;-76
2023/03/22 05:30:00;;;;;;;12.57;8.23;;;;;;;;;;4867906;29;20191;-76
2023/03/22 05:32:28;;;;;;;17.85;9.93;;;;;;;;;;4879632;29;20655;-76
2023/03/22 05:34:54;;;;;;;12.60;8.45;;;;;;;;;;4871427;29;20190;-76
2023/03/22 05:37:21;;;;;;;16.20;8.30;;;;;;;;;;4886961;29;20231;-76
2023/03/22 05:39:47;;;;;;;11.07;7.10;;;;;;;;;;4885580;29;20175;-76
2023/03/22 05:42:13;;;;;;;21.95;10.18;;;;;;;;;;4904116;29;20540;-76
2023/03/22 05:44:39;;;;;;;13.82;9.40;;;;;;;;;;4900392;29;20187;-76
2023/03/22 05:47:06;;;;;;;14.90;9.65;;;;;;;;;;4867524;29;20191;-76
2023/03/22 05:49:32;;;;;;;21.77;9.43;;;;;;;;;;4892348;29;20541;-76
2023/03/22 05:52:03;;;;;;;11.55;8.68;;;;;;;;;;4901775;29;20303;-76
2023/03/22 05:54:29;;;;;;;18.10;10.63;;;;;;;;;;4909651;29;20251;-76
2023/03/22 05:56:55;;;;;;;12.85;8.30;;;;;;;;;;4898147;29;20679;-76
2023/03/22 05:59:21;;;;;;;14.45;8.30;;;;;;;;;;4865269;29;20195;-76
2023/03/22 06:01:47;;;;;;;14.63;7.47;;;;;;;;;;4886508;29;20193;-79
2023/03/22 06:04:13;;;;;;;15.40;8.10;;;;;;;;;;4885780;29;20187;-76
2023/03/22 06:06:40;;;;;;;15.18;7.97;;;;;;;;;;4886122;29;20263;-76
2023/03/22 06:09:07;;;;;;;14.05;7.88;;;;;;;;;;4902575;29;20179;-76
2023/03/22 06:11:34;;;;;;;12.00;8.02;;;;;;;;;;4903001;29;20640;-76
2023/03/22 06:14:00;;;;;;;15.88;8.68;;;;;;;;;;4854222;29;20204;-76
2023/03/22 06:16:26;;;;;;;10.13;7.78;;;;;;;;;;4879685;29;20214;-75
2023/03/22 06:18:53;;;;;;;16.30;8.15;;;;;;;;;;4902300;29;20190;-76
2023/03/22 06:21:19;;;;;;;12.55;7.50;;;;;;;;;;4885758;29;20204;-76
2023/03/22 06:23:45;;;;;;;15.13;7.40;;;;;;;;;;4885092;29;20262;-76
2023/03/22 06:26:11;;;;;;;12.88;6.65;;;;;;;;;;4876970;29;20534;-76
2023/03/22 06:28:37;;;;;;;8.27;7.22;;;;;;;;;;4900913;29;20185;-76
2023/03/22 06:31:07;;;;;;;11.27;7.82;;;;;;;;;;4868812;29;20646;-76
2023/03/22 06:33:34;;;;;;;10.27;6.60;;;;;;;;;;4866532;29;20683;-76
2023/03/22 06:36:00;;;;;;;8.23;5.88;;;;;;;;;;4865839;29;20250;-76
2023/03/22 06:38:27;;;;;;;12.63;6.97;;;;;;;;;;4851291;29;20215;-76
2023/03/22 06:40:53;;;;;;;8.95;5.03;;;;;;;;;;4865769;29;20278;-76
2023/03/22 06:43:20;;;;;;;9.85;5.63;;;;;;;;;;4866826;29;20539;-76
2023/03/22 06:45:47;;;;;;;9.55;5.32;;;;;;;;;;4865804;29;20196;-76
2023/03/22 06:48:13;;;;;;;7.90;4.70;;;;;;;;;;4865596;29;20210;-76
2023/03/22 06:50:40;;;;;;;14.27;5.80;;;;;;;;;;4866684;29;20195;-76
2023/03/22 06:53:06;;;;;;;8.00;3.38;;;;;;;;;;4866037;29;20188;-76
2023/03/22 06:55:33;;;;;;;9.48;3.63;;;;;;;;;;4851135;29;20211;-76
2023/03/22 06:58:02;;;;;;;4.47;2.85;;;;;;;;;;4865724;29;20187;-76
2023/03/22 07:00:29;;;;;;;6.18;3.05;;;;;;;;;;4866083;29;20343;-76
2023/03/22 07:02:55;;;;;;;4.20;2.60;;;;;;;;;;4865425;29;20645;-76
2023/03/22 07:05:22;;;;;;;5.87;2.47;;;;;;;;;;4882428;29;20200;-76
2023/03/22 07:07:48;;;;;;;4.82;2.88;;;;;;;;;;4851201;29;20436;-76
2023/03/22 07:10:14;;;;;;;7.38;2.75;;;;;;;;;;4865477;29;20188;-76
2023/03/22 07:12:40;;;;;;;6.75;2.80;;;;;;;;;;4866369;29;20211;-76
2023/03/22 07:15:06;;;;;;;4.10;2.20;;;;;;;;;;4882026;29;20211;-76
2023/03/22 07:17:32;;;;;;;7.72;2.30;;;;;;;;;;4865576;29;20595;-76
2023/03/22 07:20:00;;;;;;;3.70;2.20;;;;;;;;;;4864575;29;20555;-76
2023/03/22 07:22:26;;;;;;;6.13;2.65;;;;;;;;;;4865879;29;20666;-76
2023/03/22 07:24:53;;;;;;;3.95;2.38;;;;;;;;;;4865168;29;20180;-79
2023/03/22 07:27:19;;;;;;;6.13;2.37;;;;;;;;;;4865199;29;20191;-76
2023/03/22 07:29:45;;;;;;;5.73;2.10;;;;;;;;;;4865153;29;20424;-76
2023/03/22 07:32:11;;;;;;;3.30;1.90;;;;;;;;;;4881862;29;20412;-76
2023/03/22 07:34:37;;;;;;;5.38;1.80;;;;;;;;;;4865034;29;20452;-76
2023/03/22 07:37:03;;;;;;;3.40;1.80;;;;;;;;;;4881521;29;20243;-76
2023/03/22 07:39:30;;;;;;;3.35;1.60;;;;;;;;;;4865560;29;20235;-76
2023/03/22 07:41:56;;;;;;;3.83;1.40;;;;;;;;;;4865467;29;20183;-76
2023/03/22 07:44:23;;;;;;;5.10;1.83;;;;;;;;;;4865346;29;20465;-76
2023/03/22 07:46:50;;;;;;;3.22;1.60;;;;;;;;;;4881979;29;20183;-76
2023/03/22 07:49:16;;;;;;;4.70;1.53;;;;;;;;;;4850044;29;20188;-76
2023/03/22 07:51:42;;;;;;;4.83;1.60;;;;;;;;;;4849874;29;20439;-76
2023/03/22 07:54:08;;;;;;;4.72;1.90;;;;;;;;;;4864984;29;20458;-76
2023/03/22 07:56:36;;;;;;;6.93;1.80;;;;;;;;;;4849870;29;20224;-76
2023/03/22 07:59:02;;;;;;;5.17;1.57;;;;;;;;;;4865178;29;20596;-76
2023/03/22 08:01:28;;;;;;;3.30;1.67;;;;;;;;;;4865053;29;20499;-76
2023/03/22 08:03:54;;;;;;;2.87;1.13;;;;;;;;;;4849796;29;20416;-78
2023/03/22 08:06:20;;;;;;;3.13;1.27;;;;;;;;;;4849895;29;20540;-76
2023/03/22 08:08:46;;;;;;;4.50;1.73;;;;;;;;;;4849456;29;20420;-76
2023/03/22 08:11:13;;;;;;;3.20;1.30;;;;;;;;;;4865152;29;20432;-76
2023/03/22 08:13:39;;;;;;;3.83;1.43;;;;;;;;;;4864601;29;20427;-76
2023/03/22 08:16:06;;;;;;;2.20;0.90;;;;;;;;;;4864861;29;20475;-77
2023/03/22 08:18:32;;;;;;;3.37;1.00;;;;;;;;;;4897891;29;20434;-76
2023/03/22 08:20:59;;;;;;;3.37;1.33;;;;;;;;;;4886975;29;20429;-76
2023/03/22 08:23:26;;;;;;;3.17;0.95;;;;;;;;;;4902154;29;20418;-75
2023/03/22 08:25:52;;;;;;;1.33;0.97;;;;;;;;;;4902183;29;20252;-75
2023/03/22 08:28:19;;;;;;;1.70;1.10;;;;;;;;;;4902391;29;20425;-75
2023/03/22 08:30:46;;;;;;;2.70;1.03;;;;;;;;;;4919299;29;20177;-75
2023/03/22 08:33:12;;;;;;;4.57;1.37;;;;;;;;;;4906220;29;20422;-75
2023/03/22 08:35:38;;;;;;;2.60;1.27;;;;;;;;;;4923091;29;20994;-75
2023/03/22 08:38:05;;;;;;;3.33;1.10;;;;;;;;;;4922613;29;20777;-75
2023/03/22 08:40:31;;;;;;;3.60;1.20;;;;;;;;;;4906113;29;20835;-75
2023/03/22 08:42:57;;;;;;;2.67;1.00;;;;;;;;;;4905941;29;20529;-78
2023/03/22 08:45:24;;;;;;;5.67;1.53;;;;;;;;;;4889632;29;20433;-83
2023/03/22 08:47:50;;;;;;;3.43;1.00;;;;;;;;;;4905255;29;20410;-82
2023/03/22 08:50:16;;;;;;;3.80;1.20;;;;;;;;;;4921316;29;20414;-83
2023/03/22 08:52:42;;;;;;;2.43;1.30;;;;;;;;;;4921599;29;20418;-82
2023/03/22 08:55:09;;;;;;;2.50;1.70;;;;;;;;;;4921441;29;20488;-83
2023/03/22 08:57:35;;;;;;;3.83;1.07;;;;;;;;;;4921099;29;20430;-82
2023/03/22 09:00:03;;;;;;;2.90;1.23;;;;;;;;;;4922285;29;20410;-76
2023/03/22 09:02:29;;;;;;;3.07;1.50;;;;;;;;;;4922307;29;20497;-76
2023/03/22 09:04:55;;;;;;;6.00;1.37;;;;;;;;;;4922243;29;20406;-76
2023/03/22 09:07:23;;;;;;;1.10;0.60;;;;;;;;;;4922266;29;20413;-77
2023/03/22 09:09:49;;;;;;;5.13;1.53;;;;;;;;;;4921900;29;20410;-76
2023/03/22 09:12:15;;;;;;;1.97;1.07;;;;;;;;;;4922045;29;20756;-76
2023/03/22 09:14:42;;;;;;;1.90;0.90;;;;;;;;;;4922745;29;20741;-76
2023/03/22 09:17:08;;;;;;;3.20;0.90;;;;;;;;;;4904596;29;21012;-76
2023/03/22 09:19:34;;;;;;;1.70;0.90;;;;;;;;;;4922046;29;20410;-76
2023/03/22 09:22:00;;;;;;;2.43;0.90;;;;;;;;;;4922001;29;20407;-77
2023/03/22 09:24:26;;;;;;;4.73;1.03;;;;;;;;;;4919440;29;20464;-76
2023/03/22 09:26:52;;;;;;;1.40;1.10;;;;;;;;;;4912175;29;20402;-76
2023/03/22 09:29:19;;;;;;;1.47;0.90;;;;;;;;;;4902989;29;20482;-76
2023/03/22 09:31:47;;;;;;;1.43;0.80;;;;;;;;;;4903515;29;20393;-76
2023/03/22 09:34:13;;;;;;;1.87;0.90;;;;;;;;;;4903001;29;20417;-77
2023/03/22 09:36:39;;;;;;;2.70;0.83;;;;;;;;;;4903137;29;20493;-76
2023/03/22 09:39:06;;;;;;;2.33;0.80;;;;;;;;;;4903073;29;20483;-75
2023/03/22 09:41:51;;;;;;;2.33;0.83;;;;;;;;;;4885137;29;20423;-76
2023/03/22 09:44:24;;;;;;;1.90;0.90;;;;;;;;;;4909772;29;20416;-76
2023/03/22 09:46:51;;;;;;;4.50;1.10;;;;;;;;;;4902955;29;20415;-76
2023/03/22 09:49:20;;;;;;;4.67;0.97;;;;;;;;;;4902708;29;20412;-76
2023/03/22 09:51:53;;;;;;;2.10;0.90;;;;;;;;;;4902760;29;20411;-76
2023/03/22 09:54:39;;;;;;;2.90;1.17;;;;;;;;;;4902493;29;20411;-76
2023/03/22 09:57:11;;;;;;;3.43;0.90;;;;;;;;;;4902093;29;21058;-76
2023/03/22 09:59:45;;;;;;;2.63;1.30;;;;;;;;;;4902263;29;20412;-76
2023/03/22 10:02:23;;;;;;;3.80;1.40;;;;;;;;;;4885938;29;20912;-76
2023/03/22 10:04:54;;;;;;;1.57;1.03;;;;;;;;;;4902471;29;20423;-76
2023/03/22 10:07:33;;;;;;;1.37;0.80;;;;;;;;;;4902465;29;20506;-77
2023/03/22 10:10:19;;;;;;;9.63;1.17;;;;;;;;;;4902664;29;20415;-77
2023/03/22 10:12:56;;;;;;;2.53;1.20;;;;;;;;;;4902720;29;20410;-76
2023/03/22 10:15:36;;;;;;;4.33;1.23;;;;;;;;;;4902075;29;20821;-77
2023/03/22 10:18:05;;;;;;;4.10;1.80;;;;;;;;;;4884895;29;20503;-81
2023/03/22 10:20:46;;;;;;;5.33;2.20;;;;;;;;;;4902417;29;20414;-76
2023/03/22 10:23:15;;;;;;;1.83;1.17;;;;;;;;;;4902534;29;20498;-77
2023/03/22 10:25:42;;;;;;;3.00;1.57;;;;;;;;;;4902767;29;20756;-76
2023/03/22 10:28:20;;;;;;;2.50;0.93;;;;;;;;;;4902309;29;20491;-77
2023/03/22 10:30:52;;;;;;;2.73;1.00;;;;;;;;;;4901753;29;20873;-77
2023/03/22 10:33:49;;;;;;;4.87;0.93;;;;;;;;;;4901538;29;20411;-77
2023/03/22 10:36:15;;;;;;;1.10;0.77;;;;;;;;;;4898522;29;20498;-77
2023/03/22 10:39:02;;;;;;;4.63;1.23;;;;;;;;;;4906850;29;20524;-77
2023/03/22 10:41:29;;;;;;;1.57;0.80;;;;;;;;;;4920936;29;20414;-77
2023/03/22 10:43:57;;;;;;;0.97;0.80;;;;;;;;;;4921142;29;20412;-77
2023/03/22 10:46:25;;;;;;;4.40;1.10;;;;;;;;;;4903436;29;20975;-76
2023/03/22 10:48:53;;;;;;;2.13;1.20;;;;;;;;;;4921211;29;20414;-77
2023/03/22 10:51:38;;;;;;;2.93;1.10;;;;;;;;;;4920285;29;20417;-77
2023/03/22 10:54:04;;;;;;;2.70;1.17;;;;;;;;;;4919840;29;20410;-77
2023/03/22 10:56:31;;;;;;;1.97;1.30;;;;;;;;;;4920380;29;20624;-77
2023/03/22 10:58:57;;;;;;;2.13;1.10;;;;;;;;;;4919895;29;20407;-77
2023/03/22 11:01:31;;;;;;;3.70;1.40;;;;;;;;;;4900942;29;20764;-76
2023/03/22 11:03:59;;;;;;;3.27;1.10;;;;;;;;;;4901754;29;20845;-76
2023/03/22 11:06:29;;;;;;;3.73;1.00;;;;;;;;;;4904219;29;20494;-76
2023/03/22 11:09:00;;;;;;;3.20;1.30;;;;;;;;;;4910888;29;20407;-77
2023/03/22 11:11:35;;;;;;;2.30;1.23;;;;;;;;;;4891282;29;20486;-77
2023/03/22 11:14:01;;;;;;;4.90;1.43;;;;;;;;;;4900165;29;20415;-77
2023/03/22 11:16:27;;;;;;;6.40;1.77;;;;;;;;;;4909086;29;20844;-76
2023/03/22 11:18:54;;;;;;;4.10;1.00;;;;;;;;;;4917136;29;20429;-76
2023/03/22 11:21:24;;;;;;;2.83;0.80;;;;;;;;;;4903465;29;20423;-76
2023/03/22 11:24:05;;;;;;;3.63;1.37;;;;;;;;;;4901010;29;20451;-76
2023/03/22 11:26:32;;;;;;;5.53;1.63;;;;;;;;;;4901137;29;20426;-76
2023/03/22 11:29:05;;;;;;;2.63;1.10;;;;;;;;;;4901122;29;20494;-77
2023/03/22 11:31:57;;;;;;;3.33;1.13;;;;;;;;;;4900683;29;20416;-77
2023/03/22 11:34:28;;;;;;;3.60;1.37;;;;;;;;;;4897571;29;20426;-76
2023/03/22 11:36:58;;;;;;;2.67;1.13;;;;;;;;;;4900515;29;20497;-76
2023/03/22 11:39:27;;;;;;;3.00;1.33;;;;;;;;;;4900610;29;20430;-77
2023/03/22 11:41:53;;;;;;;3.23;1.30;;;;;;;;;;4900829;29;20415;-77
2023/03/22 11:44:21;;;;;;;2.13;1.13;;;;;;;;;;4899059;29;20445;-77
2023/03/22 11:46:59;;;;;;;2.90;1.30;;;;;;;;;;4899557;29;20429;-76
2023/03/22 11:49:30;;;;;;;1.07;0.90;;;;;;;;;;4900690;29;20405;-76
2023/03/22 11:52:07;;;;;;;4.73;1.10;;;;;;;;;;4901320;29;20474;-76
2023/03/22 11:54:34;;;;;;;3.80;2.53;;;;;;;;;;4900414;29;20403;-77
2023/03/22 11:57:03;;;;;;;5.20;1.70;;;;;;;;;;4901113;29;20865;-77
2023/03/22 11:59:40;;;;;;;4.00;1.40;;;;;;;;;;4901425;29;20411;-77
2023/03/22 12:02:22;;;;;;;2.33;1.40;;;;;;;;;;4900788;29;20407;-77
2023/03/22 12:04:50;;;;;;;7.40;1.83;;;;;;;;;;4900620;29;20455;-77
2023/03/22 12:07:20;;;;;;;5.63;1.60;;;;;;;;;;4900190;29;20478;-77
2023/03/22 12:09:50;;;;;;;4.73;1.43;;;;;;;;;;4909608;29;20446;-80
2023/03/22 12:12:19;;;;;;;3.90;1.30;;;;;;;;;;4919395;29;20427;-76
2023/03/22 12:14:49;;;;;;;3.23;1.40;;;;;;;;;;4919457;29;20418;-77
2023/03/22 12:17:18;;;;;;;1.10;1.00;;;;;;;;;;4919104;29;20470;-77
2023/03/22 12:20:00;;;;;;;1.70;1.03;;;;;;;;;;4919945;29;20497;-76
2023/03/22 12:22:31;;;;;;;1.90;1.10;;;;;;;;;;4919026;29;20442;-76
2023/03/22 12:24:58;;;;;;;1.50;1.17;;;;;;;;;;4918885;29;20414;-77
2023/03/22 12:27:26;;;;;;;2.60;1.03;;;;;;;;;;4918696;29;20454;-77
2023/03/22 12:30:12;;;;;;;4.10;0.87;;;;;;;;;;4919616;29;20482;-77
2023/03/22 12:32:40;;;;;;;2.40;1.30;;;;;;;;;;4918830;29;20418;-76
2023/03/22 12:35:07;;;;;;;1.03;0.80;;;;;;;;;;4918971;29;20431;-77
2023/03/22 12:37:35;;;;;;;3.87;1.10;;;;;;;;;;4902135;29;20490;-76
2023/03/22 12:40:20;;;;;;;7.27;1.13;;;;;;;;;;4918820;29;20421;-76
2023/03/22 12:43:03;;;;;;;2.60;1.43;;;;;;;;;;4919356;29;20428;-77
2023/03/22 12:45:31;;;;;;;3.07;1.40;;;;;;;;;;4919312;29;20411;-77
2023/03/22 12:47:57;;;;;;;4.77;1.03;;;;;;;;;;4919333;29;20380;-77
2023/03/22 12:50:28;;;;;;;4.10;1.20;;;;;;;;;;4919323;29;20830;-76
2023/03/22 12:52:55;;;;;;;2.10;1.03;;;;;;;;;;4919081;29;20515;-76
2023/03/22 12:55:29;;;;;;;5.03;1.03;;;;;;;;;;4919048;29;20426;-77
2023/03/22 12:57:55;;;;;;;2.53;1.13;;;;;;;;;;4919876;29;20492;-77
2023/03/22 13:00:27;;;;;;;2.60;1.27;;;;;;;;;;4919649;29;20410;-77
2023/03/22 13:03:02;;;;;;;4.20;1.20;;;;;;;;;;4919863;29;20466;-77
2023/03/22 13:05:29;;;;;;;4.03;1.70;;;;;;;;;;4919239;29;20465;-75
2023/03/22 13:07:58;;;;;;;2.43;1.53;;;;;;;;;;4920025;29;20406;-77
2023/03/22 13:10:32;;;;;;;2.67;1.40;;;;;;;;;;4919296;29;20422;-76
2023/03/22 13:13:11;;;;;;;3.13;1.20;;;;;;;;;;4919323;29;20418;-74
2023/03/22 13:15:40;;;;;;;3.53;1.00;;;;;;;;;;4918680;29;20572;-74
2023/03/22 13:18:22;;;;;;;4.23;1.37;;;;;;;;;;4921521;29;20442;-77
2023/03/22 13:21:07;;;;;;;4.50;1.10;;;;;;;;;;4922848;29;20402;-77
2023/03/22 13:23:33;;;;;;;3.33;1.73;;;;;;;;;;4922582;29;20790;-75
2023/03/22 13:26:00;;;;;;;2.40;1.70;;;;;;;;;;4922394;29;20929;-79
2023/03/22 13:28:27;;;;;;;4.10;1.10;;;;;;;;;;4921834;29;20406;-74
2023/03/22 13:30:53;;;;;;;2.47;1.10;;;;;;;;;;4919073;29;20923;-75
2023/03/22 13:33:23;;;;;;;2.67;1.10;;;;;;;;;;4903093;29;20442;-75
2023/03/22 13:35:57;;;;;;;3.07;1.17;;;;;;;;;;4903012;29;20538;-75
2023/03/22 13:38:33;;;;;;;3.33;1.40;;;;;;;;;;4886548;29;20426;-75
2023/03/22 13:41:16;;;;;;;2.50;1.10;;;;;;;;;;4896991;29;20473;-75
2023/03/22 13:43:43;;;;;;;3.37;1.27;;;;;;;;;;4905410;29;20473;-75
2023/03/22 13:46:09;;;;;;;3.27;1.30;;;;;;;;;;4905380;29;20426;-74
2023/03/22 13:48:51;;;;;;;5.20;1.77;;;;;;;;;;4904607;29;20426;-75
2023/03/22 13:51:29;;;;;;;6.63;1.60;;;;;;;;;;4921851;29;20423;-76
2023/03/22 13:54:08;;;;;;;3.07;1.30;;;;;;;;;;4904683;29;20501;-75
2023/03/22 13:56:34;;;;;;;3.73;1.57;;;;;;;;;;4921618;29;20564;-75
2023/03/22 13:59:02;;;;;;;4.20;1.43;;;;;;;;;;4921867;29;20895;-74
2023/03/22 14:01:28;;;;;;;1.90;1.10;;;;;;;;;;4921353;29;20447;-75
2023/03/22 14:03:56;;;;;;;4.33;1.20;;;;;;;;;;4904422;29;20959;-75
2023/03/22 14:06:24;;;;;;;2.70;1.40;;;;;;;;;;4904381;29;20438;-75
2023/03/22 14:08:54;;;;;;;2.93;1.40;;;;;;;;;;4921948;29;20774;-75
2023/03/22 14:11:26;;;;;;;5.03;1.53;;;;;;;;;;4903963;29;20442;-75
2023/03/22 14:13:56;;;;;;;3.40;1.10;;;;;;;;;;4921367;29;20418;-75
2023/03/22 14:16:43;;;;;;;4.83;1.13;;;;;;;;;;4904260;29;20473;-75
2023/03/22 14:19:14;;;;;;;1.57;1.10;;;;;;;;;;4921328;29;20453;-75
2023/03/22 14:21:42;;;;;;;5.60;1.40;;;;;;;;;;4920793;29;20411;-75
2023/03/22 14:24:13;;;;;;;5.87;1.43;;;;;;;;;;4904473;29;20462;-75
2023/03/22 14:26:44;;;;;;;3.67;1.73;;;;;;;;;;4903786;29;20418;-75
2023/03/22 14:29:10;;;;;;;2.00;1.60;;;;;;;;;;4921347;29;20406;-75
2023/03/22 14:31:36;;;;;;;4.10;1.50;;;;;;;;;;4904064;29;20429;-75
2023/03/22 14:34:10;;;;;;;7.13;2.80;;;;;;;;;;4921235;29;20505;-75
2023/03/22 14:36:38;;;;;;;2.23;1.00;;;;;;;;;;4903291;29;20504;-75
2023/03/22 14:39:11;;;;;;;2.60;1.30;;;;;;;;;;4920804;29;20422;-74
2023/03/22 14:41:37;;;;;;;2.20;1.10;;;;;;;;;;4921587;29;20426;-75
2023/03/22 14:44:04;;;;;;;3.10;1.33;;;;;;;;;;4904238;29;20423;-74
2023/03/22 14:46:37;;;;;;;2.97;1.50;;;;;;;;;;4920578;29;20787;-74
2023/03/22 14:49:04;;;;;;;6.23;1.20;;;;;;;;;;4904150;29;20456;-74